sensor_id;sensor_type;location;lat;lon;timestamp;P1;durP1;ratioP1;P2;durP2;ratioP2
7150;SDS011;3617;48.836;9.172;2022-08-21T00:01:19;3.10;;;2.27;;
7150;SDS011;3617;48.836;9.172;2022-08-21T00:03:45;3.37;;;2.40;;
7150;SDS011;3617;48.836;9.172;2022-08-21T00:06:11;3.60;;;2.67;;
7150;SDS011;3617;48.836;9.172;2022-08-21T00:08:37;3.83;;;2.40;;
7150;SDS011;3617;48.836;9.172;2022-08-21T00:11:04;4.10;;;2.43;;
7150;SDS011;3617;48.836;9.172;2022-08-21T00:13:30;3.67;;;2.30;;
7150;SDS011;3617;48.836;9.172;2022-08-21T00:15:57;3.73;;;2.10;;
7150;SDS011;3617;48.836;9.172;2022-08-21T00:18:23;3.63;;;2.30;;
7150;SDS011;3617;48.836;9.172;2022-08-21T00:20:50;3.13;;;2.27;;
7150;SDS011;3617;48.836;9.172;2022-08-21T00:23:16;4.63;;;2.93;;
7150;SDS011;3617;48.836;9.172;2022-08-21T00:25:42;3.57;;;2.43;;
7150;SDS011;3617;48.836;9.172;2022-08-21T00:28:08;3.37;;;2.50;;
7150;SDS011;3617;48.836;9.172;2022-08-21T00:30:35;5.07;;;2.40;;
7150;SDS011;3617;48.836;9.172;2022-08-21T00:33:01;3.07;;;2.53;;
7150;SDS011;3617;48.836;9.172;2022-08-21T00:35:31;6.00;;;2.63;;
7150;SDS011;3617;48.836;9.172;2022-08-21T00:37:58;2.97;;;2.23;;
7150;SDS011;3617;48.836;9.172;2022-08-21T00:40:26;3.60;;;2.70;;
7150;SDS011;3617;48.836;9.172;2022-08-21T00:42:53;3.10;;;2.57;;
7150;SDS011;3617;48.836;9.172;2022-08-21T00:45:20;4.10;;;2.30;;
7150;SDS011;3617;48.836;9.172;2022-08-21T00:47:46;11.87;;;2.77;;
7150;SDS011;3617;48.836;9.172;2022-08-21T00:50:12;3.30;;;2.57;;
7150;SDS011;3617;48.836;9.172;2022-08-21T00:52:38;5.83;;;2.83;;
7150;SDS011;3617;48.836;9.172;2022-08-21T00:55:05;3.83;;;2.77;;
7150;SDS011;3617;48.836;9.172;2022-08-21T00:57:33;4.23;;;2.90;;
7150;SDS011;3617;48.836;9.172;2022-08-21T01:00:03;3.23;;;2.67;;
7150;SDS011;3617;48.836;9.172;2022-08-21T01:02:30;4.87;;;2.57;;
7150;SDS011;3617;48.836;9.172;2022-08-21T01:04:56;8.30;;;2.87;;
7150;SDS011;3617;48.836;9.172;2022-08-21T01:07:22;5.30;;;2.77;;
7150;SDS011;3617;48.836;9.172;2022-08-21T01:09:48;5.07;;;2.70;;
7150;SDS011;3617;48.836;9.172;2022-08-21T01:12:15;4.60;;;2.73;;
7150;SDS011;3617;48.836;9.172;2022-08-21T01:14:41;3.73;;;2.53;;
7150;SDS011;3617;48.836;9.172;2022-08-21T01:17:07;3.73;;;2.60;;
7150;SDS011;3617;48.836;9.172;2022-08-21T01:19:34;7.63;;;3.10;;
7150;SDS011;3617;48.836;9.172;2022-08-21T01:22:00;3.20;;;2.43;;
7150;SDS011;3617;48.836;9.172;2022-08-21T01:24:26;5.07;;;2.77;;
7150;SDS011;3617;48.836;9.172;2022-08-21T01:26:52;3.97;;;2.63;;
7150;SDS011;3617;48.836;9.172;2022-08-21T01:29:36;4.30;;;2.70;;
7150;SDS011;3617;48.836;9.172;2022-08-21T01:32:14;3.47;;;3.00;;
7150;SDS011;3617;48.836;9.172;2022-08-21T01:34:42;4.00;;;2.67;;
7150;SDS011;3617;48.836;9.172;2022-08-21T01:37:08;4.50;;;2.97;;
7150;SDS011;3617;48.836;9.172;2022-08-21T01:39:34;4.37;;;3.20;;
7150;SDS011;3617;48.836;9.172;2022-08-21T01:42:01;5.40;;;3.37;;
7150;SDS011;3617;48.836;9.172;2022-08-21T01:44:27;4.63;;;3.10;;
7150;SDS011;3617;48.836;9.172;2022-08-21T01:46:53;5.27;;;3.70;;
7150;SDS011;3617;48.836;9.172;2022-08-21T01:49:20;4.37;;;3.20;;
7150;SDS011;3617;48.836;9.172;2022-08-21T01:51:46;5.83;;;3.57;;
7150;SDS011;3617;48.836;9.172;2022-08-21T01:54:12;6.53;;;3.07;;
7150;SDS011;3617;48.836;9.172;2022-08-21T01:56:43;5.10;;;3.27;;
7150;SDS011;3617;48.836;9.172;2022-08-21T01:59:10;3.93;;;3.10;;
7150;SDS011;3617;48.836;9.172;2022-08-21T02:01:36;4.23;;;2.83;;
7150;SDS011;3617;48.836;9.172;2022-08-21T02:04:04;5.67;;;2.97;;
7150;SDS011;3617;48.836;9.172;2022-08-21T02:06:31;5.43;;;3.33;;
7150;SDS011;3617;48.836;9.172;2022-08-21T02:08:57;4.33;;;3.03;;
7150;SDS011;3617;48.836;9.172;2022-08-21T02:11:23;5.07;;;3.53;;
7150;SDS011;3617;48.836;9.172;2022-08-21T02:13:49;6.57;;;3.30;;
7150;SDS011;3617;48.836;9.172;2022-08-21T02:16:15;6.43;;;3.10;;
7150;SDS011;3617;48.836;9.172;2022-08-21T02:18:42;4.13;;;3.27;;
7150;SDS011;3617;48.836;9.172;2022-08-21T02:21:08;4.20;;;2.93;;
7150;SDS011;3617;48.836;9.172;2022-08-21T02:23:34;4.73;;;3.27;;
7150;SDS011;3617;48.836;9.172;2022-08-21T02:26:01;6.00;;;2.90;;
7150;SDS011;3617;48.836;9.172;2022-08-21T02:28:28;3.07;;;2.40;;
7150;SDS011;3617;48.836;9.172;2022-08-21T02:30:54;4.30;;;3.10;;
7150;SDS011;3617;48.836;9.172;2022-08-21T02:33:21;4.83;;;2.60;;
7150;SDS011;3617;48.836;9.172;2022-08-21T02:35:48;3.93;;;3.00;;
7150;SDS011;3617;48.836;9.172;2022-08-21T02:38:15;4.80;;;3.40;;
7150;SDS011;3617;48.836;9.172;2022-08-21T02:40:42;4.30;;;2.70;;
7150;SDS011;3617;48.836;9.172;2022-08-21T02:43:09;5.87;;;3.00;;
7150;SDS011;3617;48.836;9.172;2022-08-21T02:45:36;4.20;;;3.13;;
7150;SDS011;3617;48.836;9.172;2022-08-21T02:48:06;4.37;;;3.00;;
7150;SDS011;3617;48.836;9.172;2022-08-21T02:50:37;4.20;;;2.60;;
7150;SDS011;3617;48.836;9.172;2022-08-21T02:53:03;3.70;;;2.90;;
7150;SDS011;3617;48.836;9.172;2022-08-21T02:55:30;4.63;;;2.53;;
7150;SDS011;3617;48.836;9.172;2022-08-21T02:57:57;5.27;;;2.90;;
7150;SDS011;3617;48.836;9.172;2022-08-21T03:00:24;6.60;;;2.77;;
7150;SDS011;3617;48.836;9.172;2022-08-21T03:02:51;3.97;;;2.80;;
7150;SDS011;3617;48.836;9.172;2022-08-21T03:05:18;3.97;;;2.77;;
7150;SDS011;3617;48.836;9.172;2022-08-21T03:07:44;3.23;;;2.47;;
7150;SDS011;3617;48.836;9.172;2022-08-21T03:10:11;5.37;;;2.93;;
7150;SDS011;3617;48.836;9.172;2022-08-21T03:12:37;5.37;;;3.00;;
7150;SDS011;3617;48.836;9.172;2022-08-21T03:15:04;5.40;;;3.07;;
7150;SDS011;3617;48.836;9.172;2022-08-21T03:17:31;3.00;;;2.63;;
7150;SDS011;3617;48.836;9.172;2022-08-21T03:19:57;4.67;;;3.03;;
7150;SDS011;3617;48.836;9.172;2022-08-21T03:22:23;5.43;;;3.13;;
7150;SDS011;3617;48.836;9.172;2022-08-21T03:24:49;5.37;;;3.13;;
7150;SDS011;3617;48.836;9.172;2022-08-21T03:27:16;3.30;;;2.70;;
7150;SDS011;3617;48.836;9.172;2022-08-21T03:29:42;4.90;;;3.40;;
7150;SDS011;3617;48.836;9.172;2022-08-21T03:32:08;5.53;;;3.03;;
7150;SDS011;3617;48.836;9.172;2022-08-21T03:34:34;4.13;;;2.83;;
7150;SDS011;3617;48.836;9.172;2022-08-21T03:37:00;3.27;;;2.93;;
7150;SDS011;3617;48.836;9.172;2022-08-21T03:39:27;4.87;;;3.03;;
7150;SDS011;3617;48.836;9.172;2022-08-21T03:41:53;4.33;;;2.90;;
7150;SDS011;3617;48.836;9.172;2022-08-21T03:44:19;3.63;;;2.93;;
7150;SDS011;3617;48.836;9.172;2022-08-21T03:46:45;3.90;;;2.73;;
7150;SDS011;3617;48.836;9.172;2022-08-21T03:49:11;5.30;;;2.90;;
7150;SDS011;3617;48.836;9.172;2022-08-21T03:51:38;5.03;;;3.20;;
7150;SDS011;3617;48.836;9.172;2022-08-21T03:54:04;3.90;;;2.93;;
7150;SDS011;3617;48.836;9.172;2022-08-21T03:56:30;4.50;;;3.17;;
7150;SDS011;3617;48.836;9.172;2022-08-21T03:58:56;3.57;;;2.87;;
7150;SDS011;3617;48.836;9.172;2022-08-21T04:01:23;5.53;;;3.27;;
7150;SDS011;3617;48.836;9.172;2022-08-21T04:03:49;4.93;;;3.43;;
7150;SDS011;3617;48.836;9.172;2022-08-21T04:06:14;4.57;;;3.47;;
7150;SDS011;3617;48.836;9.172;2022-08-21T04:08:40;4.57;;;3.50;;
7150;SDS011;3617;48.836;9.172;2022-08-21T04:11:08;4.83;;;3.30;;
7150;SDS011;3617;48.836;9.172;2022-08-21T04:13:37;4.33;;;3.30;;
7150;SDS011;3617;48.836;9.172;2022-08-21T04:16:03;4.80;;;3.50;;
7150;SDS011;3617;48.836;9.172;2022-08-21T04:18:29;5.80;;;3.60;;
7150;SDS011;3617;48.836;9.172;2022-08-21T04:20:56;4.47;;;3.57;;
7150;SDS011;3617;48.836;9.172;2022-08-21T04:23:23;5.87;;;3.37;;
7150;SDS011;3617;48.836;9.172;2022-08-21T04:25:51;5.90;;;3.13;;
7150;SDS011;3617;48.836;9.172;2022-08-21T04:28:17;4.77;;;3.20;;
7150;SDS011;3617;48.836;9.172;2022-08-21T04:30:43;4.77;;;3.40;;
7150;SDS011;3617;48.836;9.172;2022-08-21T04:33:10;5.40;;;3.23;;
7150;SDS011;3617;48.836;9.172;2022-08-21T04:35:36;6.57;;;3.40;;
7150;SDS011;3617;48.836;9.172;2022-08-21T04:38:02;6.90;;;3.20;;
7150;SDS011;3617;48.836;9.172;2022-08-21T04:40:28;6.77;;;3.60;;
7150;SDS011;3617;48.836;9.172;2022-08-21T04:42:55;5.63;;;3.57;;
7150;SDS011;3617;48.836;9.172;2022-08-21T04:45:23;4.57;;;3.17;;
7150;SDS011;3617;48.836;9.172;2022-08-21T04:47:50;3.63;;;3.10;;
7150;SDS011;3617;48.836;9.172;2022-08-21T04:50:17;5.33;;;3.20;;
7150;SDS011;3617;48.836;9.172;2022-08-21T04:52:43;5.00;;;3.37;;
7150;SDS011;3617;48.836;9.172;2022-08-21T04:55:09;5.63;;;3.47;;
7150;SDS011;3617;48.836;9.172;2022-08-21T04:57:36;5.97;;;3.27;;
7150;SDS011;3617;48.836;9.172;2022-08-21T05:00:02;3.30;;;3.00;;
7150;SDS011;3617;48.836;9.172;2022-08-21T05:02:30;6.67;;;3.27;;
7150;SDS011;3617;48.836;9.172;2022-08-21T05:04:57;4.97;;;3.20;;
7150;SDS011;3617;48.836;9.172;2022-08-21T05:07:26;4.87;;;3.10;;
7150;SDS011;3617;48.836;9.172;2022-08-21T05:09:53;4.67;;;3.27;;
7150;SDS011;3617;48.836;9.172;2022-08-21T05:12:20;6.87;;;3.40;;
7150;SDS011;3617;48.836;9.172;2022-08-21T05:14:46;5.67;;;3.23;;
7150;SDS011;3617;48.836;9.172;2022-08-21T05:17:12;5.03;;;3.00;;
7150;SDS011;3617;48.836;9.172;2022-08-21T05:19:38;4.90;;;3.80;;
7150;SDS011;3617;48.836;9.172;2022-08-21T05:22:04;6.83;;;3.30;;
7150;SDS011;3617;48.836;9.172;2022-08-21T05:24:31;6.43;;;3.23;;
7150;SDS011;3617;48.836;9.172;2022-08-21T05:26:57;5.57;;;3.47;;
7150;SDS011;3617;48.836;9.172;2022-08-21T05:29:23;4.73;;;3.20;;
7150;SDS011;3617;48.836;9.172;2022-08-21T05:31:49;3.20;;;2.67;;
7150;SDS011;3617;48.836;9.172;2022-08-21T05:34:21;4.67;;;3.20;;
7150;SDS011;3617;48.836;9.172;2022-08-21T05:36:48;6.07;;;2.87;;
7150;SDS011;3617;48.836;9.172;2022-08-21T05:39:14;3.37;;;2.70;;
7150;SDS011;3617;48.836;9.172;2022-08-21T05:41:40;4.40;;;3.37;;
7150;SDS011;3617;48.836;9.172;2022-08-21T05:44:06;4.80;;;3.03;;
7150;SDS011;3617;48.836;9.172;2022-08-21T05:46:32;4.17;;;3.10;;
7150;SDS011;3617;48.836;9.172;2022-08-21T05:48:58;3.53;;;3.10;;
7150;SDS011;3617;48.836;9.172;2022-08-21T05:51:24;4.10;;;2.93;;
7150;SDS011;3617;48.836;9.172;2022-08-21T05:53:50;5.93;;;2.70;;
7150;SDS011;3617;48.836;9.172;2022-08-21T05:56:16;5.80;;;2.77;;
7150;SDS011;3617;48.836;9.172;2022-08-21T05:58:42;9.53;;;2.93;;
7150;SDS011;3617;48.836;9.172;2022-08-21T06:01:08;5.30;;;2.67;;
7150;SDS011;3617;48.836;9.172;2022-08-21T06:03:36;3.93;;;2.80;;
7150;SDS011;3617;48.836;9.172;2022-08-21T06:06:03;3.63;;;2.67;;
7150;SDS011;3617;48.836;9.172;2022-08-21T06:08:29;4.67;;;2.73;;
7150;SDS011;3617;48.836;9.172;2022-08-21T06:10:56;3.27;;;2.37;;
7150;SDS011;3617;48.836;9.172;2022-08-21T06:13:22;4.17;;;2.80;;
7150;SDS011;3617;48.836;9.172;2022-08-21T06:15:48;4.57;;;2.80;;
7150;SDS011;3617;48.836;9.172;2022-08-21T06:18:14;3.80;;;2.60;;
7150;SDS011;3617;48.836;9.172;2022-08-21T06:20:40;3.23;;;2.70;;
7150;SDS011;3617;48.836;9.172;2022-08-21T06:23:07;3.33;;;2.40;;
7150;SDS011;3617;48.836;9.172;2022-08-21T06:25:33;3.90;;;2.60;;
7150;SDS011;3617;48.836;9.172;2022-08-21T06:28:06;2.70;;;2.42;;
7150;SDS011;3617;48.836;9.172;2022-08-21T06:30:33;3.90;;;2.70;;
7150;SDS011;3617;48.836;9.172;2022-08-21T06:32:59;3.58;;;2.70;;
7150;SDS011;3617;48.836;9.172;2022-08-21T06:35:25;3.80;;;2.40;;
7150;SDS011;3617;48.836;9.172;2022-08-21T06:37:53;4.88;;;2.50;;
7150;SDS011;3617;48.836;9.172;2022-08-21T06:40:19;4.30;;;2.33;;
7150;SDS011;3617;48.836;9.172;2022-08-21T06:42:45;5.20;;;2.40;;
7150;SDS011;3617;48.836;9.172;2022-08-21T06:45:12;3.22;;;2.30;;
7150;SDS011;3617;48.836;9.172;2022-08-21T06:47:38;3.92;;;2.42;;
7150;SDS011;3617;48.836;9.172;2022-08-21T06:50:04;4.00;;;2.50;;
7150;SDS011;3617;48.836;9.172;2022-08-21T06:52:32;5.03;;;2.50;;
7150;SDS011;3617;48.836;9.172;2022-08-21T06:54:58;2.95;;;2.20;;
7150;SDS011;3617;48.836;9.172;2022-08-21T06:57:24;5.93;;;2.72;;
7150;SDS011;3617;48.836;9.172;2022-08-21T06:59:50;2.90;;;2.38;;
7150;SDS011;3617;48.836;9.172;2022-08-21T07:02:16;3.78;;;2.63;;
7150;SDS011;3617;48.836;9.172;2022-08-21T07:04:42;3.38;;;2.40;;
7150;SDS011;3617;48.836;9.172;2022-08-21T07:07:08;4.60;;;2.30;;
7150;SDS011;3617;48.836;9.172;2022-08-21T07:09:34;4.57;;;2.38;;
7150;SDS011;3617;48.836;9.172;2022-08-21T07:12:01;5.15;;;2.08;;
7150;SDS011;3617;48.836;9.172;2022-08-21T07:14:27;3.38;;;2.30;;
7150;SDS011;3617;48.836;9.172;2022-08-21T07:16:53;2.70;;;2.08;;
7150;SDS011;3617;48.836;9.172;2022-08-21T07:19:19;3.75;;;2.40;;
7150;SDS011;3617;48.836;9.172;2022-08-21T07:21:46;3.90;;;2.60;;
7150;SDS011;3617;48.836;9.172;2022-08-21T07:24:12;3.40;;;2.20;;
7150;SDS011;3617;48.836;9.172;2022-08-21T07:26:38;3.15;;;2.47;;
7150;SDS011;3617;48.836;9.172;2022-08-21T07:29:05;4.10;;;2.30;;
7150;SDS011;3617;48.836;9.172;2022-08-21T07:31:31;4.95;;;2.50;;
7150;SDS011;3617;48.836;9.172;2022-08-21T07:33:57;3.20;;;2.20;;
7150;SDS011;3617;48.836;9.172;2022-08-21T07:36:23;3.90;;;2.10;;
7150;SDS011;3617;48.836;9.172;2022-08-21T07:38:49;4.28;;;2.30;;
7150;SDS011;3617;48.836;9.172;2022-08-21T07:41:16;3.75;;;2.33;;
7150;SDS011;3617;48.836;9.172;2022-08-21T07:43:43;3.28;;;2.42;;
7150;SDS011;3617;48.836;9.172;2022-08-21T07:46:09;3.33;;;2.25;;
7150;SDS011;3617;48.836;9.172;2022-08-21T07:48:35;3.72;;;2.42;;
7150;SDS011;3617;48.836;9.172;2022-08-21T07:51:02;4.43;;;2.65;;
7150;SDS011;3617;48.836;9.172;2022-08-21T07:53:31;4.18;;;2.42;;
7150;SDS011;3617;48.836;9.172;2022-08-21T07:55:57;2.97;;;2.10;;
7150;SDS011;3617;48.836;9.172;2022-08-21T07:58:23;5.20;;;2.45;;
7150;SDS011;3617;48.836;9.172;2022-08-21T08:00:49;4.30;;;2.25;;
7150;SDS011;3617;48.836;9.172;2022-08-21T08:03:16;3.33;;;2.65;;
7150;SDS011;3617;48.836;9.172;2022-08-21T08:05:41;3.60;;;2.10;;
7150;SDS011;3617;48.836;9.172;2022-08-21T08:08:08;5.38;;;2.72;;
7150;SDS011;3617;48.836;9.172;2022-08-21T08:10:34;5.32;;;2.30;;
7150;SDS011;3617;48.836;9.172;2022-08-21T08:13:00;4.45;;;2.50;;
7150;SDS011;3617;48.836;9.172;2022-08-21T08:15:27;3.92;;;2.45;;
7150;SDS011;3617;48.836;9.172;2022-08-21T08:17:53;8.32;;;2.28;;
7150;SDS011;3617;48.836;9.172;2022-08-21T08:20:20;3.67;;;2.70;;
7150;SDS011;3617;48.836;9.172;2022-08-21T08:22:47;4.97;;;2.58;;
7150;SDS011;3617;48.836;9.172;2022-08-21T08:25:14;4.38;;;2.60;;
7150;SDS011;3617;48.836;9.172;2022-08-21T08:27:41;3.33;;;2.03;;
7150;SDS011;3617;48.836;9.172;2022-08-21T08:30:08;3.92;;;2.40;;
7150;SDS011;3617;48.836;9.172;2022-08-21T08:32:35;3.00;;;2.28;;
7150;SDS011;3617;48.836;9.172;2022-08-21T08:35:01;6.03;;;2.88;;
7150;SDS011;3617;48.836;9.172;2022-08-21T08:37:27;5.90;;;3.00;;
7150;SDS011;3617;48.836;9.172;2022-08-21T08:39:53;3.63;;;2.20;;
7150;SDS011;3617;48.836;9.172;2022-08-21T08:42:22;5.72;;;2.50;;
7150;SDS011;3617;48.836;9.172;2022-08-21T08:44:50;4.30;;;2.45;;
7150;SDS011;3617;48.836;9.172;2022-08-21T08:47:21;3.75;;;2.30;;
7150;SDS011;3617;48.836;9.172;2022-08-21T08:50:04;3.30;;;2.35;;
7150;SDS011;3617;48.836;9.172;2022-08-21T08:52:35;3.35;;;2.25;;
7150;SDS011;3617;48.836;9.172;2022-08-21T08:55:06;3.97;;;2.22;;
7150;SDS011;3617;48.836;9.172;2022-08-21T08:57:33;3.13;;;2.20;;
7150;SDS011;3617;48.836;9.172;2022-08-21T09:00:04;3.70;;;2.65;;
7150;SDS011;3617;48.836;9.172;2022-08-21T09:02:30;5.00;;;2.60;;
7150;SDS011;3617;48.836;9.172;2022-08-21T09:04:58;6.70;;;2.60;;
7150;SDS011;3617;48.836;9.172;2022-08-21T09:07:35;4.50;;;2.60;;
7150;SDS011;3617;48.836;9.172;2022-08-21T09:23:19;4.82;;;2.80;;
7150;SDS011;3617;48.836;9.172;2022-08-21T09:28:25;3.95;;;2.60;;
7150;SDS011;3617;48.836;9.172;2022-08-21T09:30:54;4.57;;;2.40;;
7150;SDS011;3617;48.836;9.172;2022-08-21T09:33:21;3.38;;;2.30;;
7150;SDS011;3617;48.836;9.172;2022-08-21T09:35:52;4.05;;;2.45;;
7150;SDS011;3617;48.836;9.172;2022-08-21T09:38:26;4.25;;;2.38;;
7150;SDS011;3617;48.836;9.172;2022-08-21T09:40:57;5.28;;;2.83;;
7150;SDS011;3617;48.836;9.172;2022-08-21T09:43:25;6.82;;;2.70;;
7150;SDS011;3617;48.836;9.172;2022-08-21T09:48:50;3.33;;;2.40;;
7150;SDS011;3617;48.836;9.172;2022-08-21T09:51:18;5.75;;;2.50;;
7150;SDS011;3617;48.836;9.172;2022-08-21T09:53:47;4.32;;;2.20;;
7150;SDS011;3617;48.836;9.172;2022-08-21T09:59:18;6.18;;;2.42;;
7150;SDS011;3617;48.836;9.172;2022-08-21T10:01:46;6.03;;;2.40;;
7150;SDS011;3617;48.836;9.172;2022-08-21T10:04:12;2.70;;;2.10;;
7150;SDS011;3617;48.836;9.172;2022-08-21T10:06:38;2.88;;;2.15;;
7150;SDS011;3617;48.836;9.172;2022-08-21T10:09:11;4.90;;;2.33;;
7150;SDS011;3617;48.836;9.172;2022-08-21T10:11:38;3.72;;;2.17;;
7150;SDS011;3617;48.836;9.172;2022-08-21T10:14:30;6.47;;;2.80;;
7150;SDS011;3617;48.836;9.172;2022-08-21T10:17:01;4.78;;;2.42;;
7150;SDS011;3617;48.836;9.172;2022-08-21T10:19:32;4.78;;;2.13;;
7150;SDS011;3617;48.836;9.172;2022-08-21T10:22:36;5.50;;;2.33;;
7150;SDS011;3617;48.836;9.172;2022-08-21T10:37:56;6.57;;;2.63;;
7150;SDS011;3617;48.836;9.172;2022-08-21T10:40:34;4.25;;;2.40;;
7150;SDS011;3617;48.836;9.172;2022-08-21T10:43:16;7.50;;;2.85;;
7150;SDS011;3617;48.836;9.172;2022-08-21T10:48:16;3.63;;;1.80;;
7150;SDS011;3617;48.836;9.172;2022-08-21T10:55:43;4.30;;;2.40;;
7150;SDS011;3617;48.836;9.172;2022-08-21T10:58:11;4.15;;;2.33;;
7150;SDS011;3617;48.836;9.172;2022-08-21T11:00:45;6.20;;;2.78;;
7150;SDS011;3617;48.836;9.172;2022-08-21T11:03:20;4.63;;;2.42;;
7150;SDS011;3617;48.836;9.172;2022-08-21T11:05:51;4.07;;;2.67;;
7150;SDS011;3617;48.836;9.172;2022-08-21T11:08:40;4.80;;;2.40;;
7150;SDS011;3617;48.836;9.172;2022-08-21T11:11:05;4.63;;;2.65;;
7150;SDS011;3617;48.836;9.172;2022-08-21T11:16:02;4.03;;;2.72;;
7150;SDS011;3617;48.836;9.172;2022-08-21T11:18:34;4.18;;;2.70;;
7150;SDS011;3617;48.836;9.172;2022-08-21T11:23:48;4.32;;;2.50;;
7150;SDS011;3617;48.836;9.172;2022-08-21T11:26:23;4.78;;;2.78;;
7150;SDS011;3617;48.836;9.172;2022-08-21T11:28:52;5.20;;;2.90;;
7150;SDS011;3617;48.836;9.172;2022-08-21T11:31:24;3.60;;;2.47;;
7150;SDS011;3617;48.836;9.172;2022-08-21T11:34:12;3.42;;;2.55;;
7150;SDS011;3617;48.836;9.172;2022-08-21T11:37:01;4.72;;;2.60;;
7150;SDS011;3617;48.836;9.172;2022-08-21T11:44:38;6.00;;;2.83;;
7150;SDS011;3617;48.836;9.172;2022-08-21T11:54:39;5.65;;;2.70;;
7150;SDS011;3617;48.836;9.172;2022-08-21T11:57:20;4.18;;;2.95;;
7150;SDS011;3617;48.836;9.172;2022-08-21T11:59:51;3.78;;;2.50;;
7150;SDS011;3617;48.836;9.172;2022-08-21T12:02:20;4.35;;;2.38;;
7150;SDS011;3617;48.836;9.172;2022-08-21T12:04:48;3.47;;;2.47;;
7150;SDS011;3617;48.836;9.172;2022-08-21T12:07:29;4.40;;;2.58;;
7150;SDS011;3617;48.836;9.172;2022-08-21T12:09:55;3.70;;;2.60;;
7150;SDS011;3617;48.836;9.172;2022-08-21T12:12:24;4.43;;;2.42;;
7150;SDS011;3617;48.836;9.172;2022-08-21T12:14:51;4.82;;;2.60;;
7150;SDS011;3617;48.836;9.172;2022-08-21T12:17:20;3.67;;;2.58;;
7150;SDS011;3617;48.836;9.172;2022-08-21T12:19:57;4.25;;;2.10;;
7150;SDS011;3617;48.836;9.172;2022-08-21T12:22:24;4.47;;;2.22;;
7150;SDS011;3617;48.836;9.172;2022-08-21T12:25:11;3.83;;;2.00;;
7150;SDS011;3617;48.836;9.172;2022-08-21T12:27:50;4.88;;;2.20;;
7150;SDS011;3617;48.836;9.172;2022-08-21T12:30:32;4.07;;;2.08;;
7150;SDS011;3617;48.836;9.172;2022-08-21T12:33:00;3.97;;;1.92;;
7150;SDS011;3617;48.836;9.172;2022-08-21T12:35:36;3.25;;;2.10;;
7150;SDS011;3617;48.836;9.172;2022-08-21T12:38:14;3.17;;;2.20;;
7150;SDS011;3617;48.836;9.172;2022-08-21T12:43:27;4.65;;;2.42;;
7150;SDS011;3617;48.836;9.172;2022-08-21T12:45:55;4.32;;;2.35;;
7150;SDS011;3617;48.836;9.172;2022-08-21T12:51:16;2.92;;;2.00;;
7150;SDS011;3617;48.836;9.172;2022-08-21T12:53:55;4.97;;;2.20;;
7150;SDS011;3617;48.836;9.172;2022-08-21T12:56:25;3.10;;;2.20;;
7150;SDS011;3617;48.836;9.172;2022-08-21T12:58:54;3.63;;;2.20;;
7150;SDS011;3617;48.836;9.172;2022-08-21T13:01:38;3.30;;;2.33;;
7150;SDS011;3617;48.836;9.172;2022-08-21T13:04:12;3.90;;;2.30;;
7150;SDS011;3617;48.836;9.172;2022-08-21T13:06:39;4.57;;;2.22;;
7150;SDS011;3617;48.836;9.172;2022-08-21T13:09:07;3.15;;;2.30;;
7150;SDS011;3617;48.836;9.172;2022-08-21T13:11:34;4.82;;;2.47;;
7150;SDS011;3617;48.836;9.172;2022-08-21T13:14:01;3.97;;;2.33;;
7150;SDS011;3617;48.836;9.172;2022-08-21T13:16:28;3.97;;;2.40;;
7150;SDS011;3617;48.836;9.172;2022-08-21T13:21:20;3.58;;;1.90;;
7150;SDS011;3617;48.836;9.172;2022-08-21T13:23:46;3.78;;;2.22;;
7150;SDS011;3617;48.836;9.172;2022-08-21T13:26:16;4.70;;;2.30;;
7150;SDS011;3617;48.836;9.172;2022-08-21T13:28:44;3.72;;;2.63;;
7150;SDS011;3617;48.836;9.172;2022-08-21T13:31:12;4.55;;;2.35;;
7150;SDS011;3617;48.836;9.172;2022-08-21T13:33:39;5.05;;;2.38;;
7150;SDS011;3617;48.836;9.172;2022-08-21T13:36:09;3.97;;;2.30;;
7150;SDS011;3617;48.836;9.172;2022-08-21T13:38:36;2.55;;;2.33;;
7150;SDS011;3617;48.836;9.172;2022-08-21T13:41:05;3.15;;;2.10;;
7150;SDS011;3617;48.836;9.172;2022-08-21T13:43:34;3.65;;;2.30;;
7150;SDS011;3617;48.836;9.172;2022-08-21T13:46:02;5.30;;;2.50;;
7150;SDS011;3617;48.836;9.172;2022-08-21T13:48:33;5.40;;;2.70;;
7150;SDS011;3617;48.836;9.172;2022-08-21T13:50:59;3.10;;;1.95;;
7150;SDS011;3617;48.836;9.172;2022-08-21T13:53:33;3.42;;;2.33;;
7150;SDS011;3617;48.836;9.172;2022-08-21T13:56:00;4.20;;;2.50;;
7150;SDS011;3617;48.836;9.172;2022-08-21T13:58:43;3.13;;;1.92;;
7150;SDS011;3617;48.836;9.172;2022-08-21T14:03:45;5.03;;;2.28;;
7150;SDS011;3617;48.836;9.172;2022-08-21T14:06:17;3.70;;;2.20;;
7150;SDS011;3617;48.836;9.172;2022-08-21T14:11:36;2.38;;;1.98;;
7150;SDS011;3617;48.836;9.172;2022-08-21T14:14:05;5.28;;;2.20;;
7150;SDS011;3617;48.836;9.172;2022-08-21T14:16:43;3.90;;;2.38;;
7150;SDS011;3617;48.836;9.172;2022-08-21T14:19:15;3.47;;;2.13;;
7150;SDS011;3617;48.836;9.172;2022-08-21T14:21:43;4.50;;;2.38;;
7150;SDS011;3617;48.836;9.172;2022-08-21T14:26:36;5.30;;;2.30;;
7150;SDS011;3617;48.836;9.172;2022-08-21T14:29:04;2.42;;;1.98;;
7150;SDS011;3617;48.836;9.172;2022-08-21T14:31:33;3.97;;;2.20;;
7150;SDS011;3617;48.836;9.172;2022-08-21T14:33:59;3.42;;;2.30;;
7150;SDS011;3617;48.836;9.172;2022-08-21T14:36:26;3.63;;;2.13;;
7150;SDS011;3617;48.836;9.172;2022-08-21T14:38:52;2.97;;;1.90;;
7150;SDS011;3617;48.836;9.172;2022-08-21T14:41:19;2.28;;;1.73;;
7150;SDS011;3617;48.836;9.172;2022-08-21T14:43:46;4.47;;;2.15;;
7150;SDS011;3617;48.836;9.172;2022-08-21T14:46:13;3.55;;;2.00;;
7150;SDS011;3617;48.836;9.172;2022-08-21T14:48:44;3.33;;;2.08;;
7150;SDS011;3617;48.836;9.172;2022-08-21T14:51:11;3.65;;;2.10;;
7150;SDS011;3617;48.836;9.172;2022-08-21T14:53:37;3.63;;;2.20;;
7150;SDS011;3617;48.836;9.172;2022-08-21T14:56:03;2.83;;;2.00;;
7150;SDS011;3617;48.836;9.172;2022-08-21T14:58:29;3.03;;;2.13;;
7150;SDS011;3617;48.836;9.172;2022-08-21T15:00:55;3.78;;;2.20;;
7150;SDS011;3617;48.836;9.172;2022-08-21T15:03:22;3.28;;;1.90;;
7150;SDS011;3617;48.836;9.172;2022-08-21T15:05:49;2.78;;;2.10;;
7150;SDS011;3617;48.836;9.172;2022-08-21T15:08:15;3.70;;;2.33;;
7150;SDS011;3617;48.836;9.172;2022-08-21T15:10:41;3.80;;;2.30;;
7150;SDS011;3617;48.836;9.172;2022-08-21T15:13:07;3.78;;;1.98;;
7150;SDS011;3617;48.836;9.172;2022-08-21T15:15:35;4.03;;;2.25;;
7150;SDS011;3617;48.836;9.172;2022-08-21T15:18:03;4.45;;;2.17;;
7150;SDS011;3617;48.836;9.172;2022-08-21T15:20:29;2.83;;;2.10;;
7150;SDS011;3617;48.836;9.172;2022-08-21T15:22:55;3.85;;;2.17;;
7150;SDS011;3617;48.836;9.172;2022-08-21T15:25:21;4.10;;;2.00;;
7150;SDS011;3617;48.836;9.172;2022-08-21T15:27:47;7.47;;;2.10;;
7150;SDS011;3617;48.836;9.172;2022-08-21T15:30:13;3.17;;;1.80;;
7150;SDS011;3617;48.836;9.172;2022-08-21T15:32:39;2.33;;;1.90;;
7150;SDS011;3617;48.836;9.172;2022-08-21T15:35:06;4.90;;;2.20;;
7150;SDS011;3617;48.836;9.172;2022-08-21T15:37:32;5.35;;;2.05;;
7150;SDS011;3617;48.836;9.172;2022-08-21T15:39:58;3.67;;;2.10;;
7150;SDS011;3617;48.836;9.172;2022-08-21T15:42:25;2.90;;;1.80;;
7150;SDS011;3617;48.836;9.172;2022-08-21T15:44:51;5.78;;;2.05;;
7150;SDS011;3617;48.836;9.172;2022-08-21T15:47:19;4.72;;;2.30;;
7150;SDS011;3617;48.836;9.172;2022-08-21T15:49:46;2.78;;;1.90;;
7150;SDS011;3617;48.836;9.172;2022-08-21T15:52:12;2.92;;;2.10;;
7150;SDS011;3617;48.836;9.172;2022-08-21T15:54:38;3.70;;;2.20;;
7150;SDS011;3617;48.836;9.172;2022-08-21T15:57:05;3.55;;;2.00;;
7150;SDS011;3617;48.836;9.172;2022-08-21T15:59:32;2.83;;;1.83;;
7150;SDS011;3617;48.836;9.172;2022-08-21T16:02:04;3.58;;;1.85;;
7150;SDS011;3617;48.836;9.172;2022-08-21T16:04:30;3.40;;;2.03;;
7150;SDS011;3617;48.836;9.172;2022-08-21T16:06:56;2.55;;;1.83;;
7150;SDS011;3617;48.836;9.172;2022-08-21T16:09:22;3.25;;;1.88;;
7150;SDS011;3617;48.836;9.172;2022-08-21T16:11:48;3.45;;;2.03;;
7150;SDS011;3617;48.836;9.172;2022-08-21T16:14:15;3.13;;;1.90;;
7150;SDS011;3617;48.836;9.172;2022-08-21T16:16:42;3.55;;;1.98;;
7150;SDS011;3617;48.836;9.172;2022-08-21T16:19:09;2.63;;;1.75;;
7150;SDS011;3617;48.836;9.172;2022-08-21T16:21:36;2.85;;;2.10;;
7150;SDS011;3617;48.836;9.172;2022-08-21T16:24:02;2.63;;;1.90;;
7150;SDS011;3617;48.836;9.172;2022-08-21T16:26:28;5.15;;;1.70;;
7150;SDS011;3617;48.836;9.172;2022-08-21T16:28:55;2.53;;;2.13;;
7150;SDS011;3617;48.836;9.172;2022-08-21T16:31:22;2.90;;;2.22;;
7150;SDS011;3617;48.836;9.172;2022-08-21T16:33:49;3.53;;;2.20;;
7150;SDS011;3617;48.836;9.172;2022-08-21T16:36:15;2.72;;;1.90;;